createdAt,value
2019-01-14T00:01:18.332Z,83.09
2019-01-14T00:03:47.243Z,83.34
2019-01-14T00:06:16.121Z,82.82
2019-01-14T00:08:45.061Z,82.47
2019-01-14T00:11:14.049Z,82.08
2019-01-14T00:13:45.129Z,82.06
2019-01-14T00:16:14.084Z,81.84
2019-01-14T00:18:42.977Z,82.31
2019-01-14T00:21:11.863Z,82.07
2019-01-14T00:23:40.780Z,81.88
2019-01-14T00:26:10.906Z,81.30
2019-01-14T00:28:38.616Z,81.28
2019-01-14T00:31:07.597Z,80.92
2019-01-14T00:33:38.006Z,80.65
2019-01-14T00:36:05.382Z,80.70
2019-01-14T00:38:34.310Z,80.67
2019-01-14T00:41:03.227Z,80.63
2019-01-14T00:43:32.143Z,80.62
2019-01-14T00:46:01.056Z,80.75
2019-01-14T00:48:29.985Z,81.03
2019-01-14T00:50:58.911Z,80.77
2019-01-14T00:53:27.810Z,80.59
2019-01-14T00:55:56.716Z,80.55
2019-01-14T00:58:25.641Z,80.38
2019-01-14T01:00:54.605Z,80.41
2019-01-14T01:03:23.533Z,80.47
2019-01-14T01:05:52.533Z,80.65
2019-01-14T01:08:21.372Z,80.89
2019-01-14T01:10:50.275Z,80.71
2019-01-14T01:13:19.201Z,80.80
2019-01-14T01:15:48.131Z,81.01
2019-01-14T01:18:17.077Z,81.13
2019-01-14T01:20:46.040Z,81.63
2019-01-14T01:23:14.930Z,81.72
2019-01-14T01:25:43.847Z,81.25
2019-01-14T01:28:12.758Z,81.43
2019-01-14T01:30:41.654Z,81.00
2019-01-14T01:33:10.561Z,80.47
2019-01-14T01:35:39.524Z,80.49
2019-01-14T01:38:08.529Z,80.49
2019-01-14T01:40:37.398Z,80.63
2019-01-14T01:43:08.761Z,80.24
2019-01-14T01:45:37.978Z,80.20
2019-01-14T01:48:08.541Z,79.56
2019-01-14T01:50:37.439Z,79.68
2019-01-14T01:53:06.395Z,79.29
2019-01-14T01:55:35.418Z,79.21
2019-01-14T01:58:04.369Z,78.25
2019-01-14T02:00:33.228Z,78.13
2019-01-14T02:03:02.144Z,77.85
2019-01-14T02:05:31.085Z,78.11
2019-01-14T02:07:59.986Z,78.31
2019-01-14T02:10:28.860Z,78.59
2019-01-14T02:12:57.753Z,78.16
2019-01-14T02:15:26.665Z,77.77
2019-01-14T02:17:55.571Z,77.74
2019-01-14T02:20:24.476Z,78.00
2019-01-14T02:22:53.391Z,78.54
2019-01-14T02:25:22.313Z,79.26
2019-01-14T02:27:51.217Z,79.85
2019-01-14T02:30:21.933Z,80.22
2019-01-14T02:32:50.830Z,80.78
2019-01-14T02:35:19.738Z,80.78
2019-01-14T02:37:48.720Z,81.16
2019-01-14T02:40:19.699Z,81.52
2019-01-14T02:42:48.552Z,81.95
2019-01-14T02:45:17.443Z,81.77
2019-01-14T02:47:46.346Z,82.54
2019-01-14T02:50:15.342Z,82.50
2019-01-14T02:52:44.246Z,82.23
2019-01-14T02:55:13.199Z,82.23
2019-01-14T02:57:42.188Z,82.04
2019-01-14T03:00:26.849Z,82.12
2019-01-14T03:02:55.815Z,81.86
2019-01-14T03:05:24.705Z,82.08
2019-01-14T03:07:53.517Z,82.21
2019-01-14T03:10:22.419Z,82.04
2019-01-14T03:12:51.310Z,81.86
2019-01-14T03:15:20.262Z,81.65
2019-01-14T03:17:49.198Z,82.14
2019-01-14T03:20:18.067Z,81.79
2019-01-14T03:22:46.975Z,81.65
2019-01-14T03:25:16.192Z,81.43
2019-01-14T03:27:45.127Z,81.33
2019-01-14T03:30:16.611Z,81.01
2019-01-14T03:32:45.481Z,80.86
2019-01-14T03:35:14.477Z,81.01
2019-01-14T03:37:43.512Z,81.03
2019-01-14T03:40:14.265Z,81.07
2019-01-14T03:42:43.183Z,80.75
2019-01-14T03:45:14.306Z,79.99
2019-01-14T03:47:43.172Z,80.55
2019-01-14T03:50:17.260Z,80.24
2019-01-14T03:52:46.151Z,80.63
2019-01-14T03:55:15.114Z,80.41
2019-01-14T03:57:44.012Z,79.90
2019-01-14T04:00:13.950Z,79.97
2019-01-14T04:02:42.881Z,80.50
2019-01-14T04:05:11.855Z,80.45
2019-01-14T04:07:40.714Z,80.55
2019-01-14T04:10:12.182Z,80.86
2019-01-14T04:12:41.095Z,81.31
2019-01-14T04:15:11.214Z,81.40
2019-01-14T04:17:40.172Z,82.15
2019-01-14T04:20:09.997Z,83.39
2019-01-14T04:22:38.910Z,83.63
2019-01-14T04:25:07.994Z,83.06
2019-01-14T04:27:36.908Z,83.13
2019-01-14T04:30:08.948Z,83.73
2019-01-14T04:32:37.764Z,83.95
2019-01-14T04:35:07.043Z,84.39
2019-01-14T04:37:35.917Z,84.10
2019-01-14T04:40:05.346Z,84.12
2019-01-14T04:42:34.229Z,84.19
2019-01-14T04:45:03.175Z,83.43
2019-01-14T04:47:32.059Z,83.15
2019-01-14T04:50:00.989Z,82.60
2019-01-14T04:52:29.874Z,83.46
2019-01-14T04:54:58.800Z,83.64
2019-01-14T04:57:27.700Z,83.54
2019-01-14T04:59:56.615Z,83.57
2019-01-14T05:02:25.553Z,83.12
2019-01-14T05:04:54.507Z,82.93
2019-01-14T05:07:29.487Z,83.46
2019-01-14T05:09:52.365Z,83.22
2019-01-14T05:12:21.264Z,83.78
2019-01-14T05:14:50.167Z,84.26
2019-01-14T05:17:19.141Z,84.39
2019-01-14T05:19:48.117Z,83.84
2019-01-14T05:22:17.016Z,83.88
2019-01-14T05:24:45.947Z,84.01
2019-01-14T05:27:14.858Z,83.93
2019-01-14T05:29:43.735Z,84.04
2019-01-14T05:32:12.779Z,84.90
2019-01-14T05:34:41.700Z,85.15
2019-01-14T05:37:10.643Z,85.17
2019-01-14T05:39:39.569Z,85.43
2019-01-14T05:42:08.556Z,85.58
2019-01-14T05:44:38.425Z,85.81
2019-01-14T05:47:07.341Z,85.65
2019-01-14T05:49:36.275Z,85.23
2019-01-14T05:52:05.291Z,85.14
2019-01-14T05:54:34.243Z,84.82
2019-01-14T05:57:03.162Z,85.22
2019-01-14T05:59:32.055Z,85.02
2019-01-14T06:02:00.936Z,85.02
2019-01-14T06:04:32.757Z,85.27
2019-01-14T06:07:01.656Z,85.70
2019-01-14T06:09:30.537Z,85.65
2019-01-14T06:11:59.441Z,85.38
2019-01-14T06:14:28.357Z,85.80
2019-01-14T06:16:57.183Z,85.64
2019-01-14T06:19:26.156Z,85.26
2019-01-14T06:21:55.157Z,85.07
2019-01-14T06:24:24.006Z,84.77
2019-01-14T06:26:53.082Z,84.83
2019-01-14T06:29:22.091Z,84.00
2019-01-14T06:31:51.164Z,83.76
2019-01-14T06:34:20.241Z,83.36
2019-01-14T06:36:49.105Z,83.74
2019-01-14T06:39:17.983Z,83.43
2019-01-14T06:41:47.025Z,83.43
2019-01-14T06:44:15.950Z,83.78
2019-01-14T06:46:44.888Z,84.31
2019-01-14T06:49:13.805Z,83.89
2019-01-14T06:51:42.722Z,83.63
2019-01-14T06:54:11.646Z,83.94
2019-01-14T06:56:40.566Z,83.83
2019-01-14T06:59:09.480Z,84.01
2019-01-14T07:01:38.386Z,84.04
2019-01-14T07:04:07.360Z,83.76
2019-01-14T07:06:36.257Z,83.12
2019-01-14T07:09:06.654Z,83.03
2019-01-14T07:11:35.630Z,82.80
2019-01-14T07:14:04.531Z,83.45
2019-01-14T07:16:33.508Z,83.73
2019-01-14T07:19:02.512Z,84.02
2019-01-14T07:21:31.366Z,83.83
2019-01-14T07:24:01.043Z,83.61
2019-01-14T07:26:29.916Z,83.41
2019-01-14T07:29:01.329Z,83.62
2019-01-14T07:31:27.866Z,83.33
2019-01-14T07:33:59.227Z,83.79
2019-01-14T07:36:28.201Z,84.03
2019-01-14T07:38:57.140Z,83.86
2019-01-14T07:41:26.119Z,84.02
2019-01-14T07:43:55.052Z,83.70
2019-01-14T07:46:23.999Z,83.55
2019-01-14T07:48:52.980Z,83.11
2019-01-14T07:51:21.887Z,82.88
2019-01-14T07:53:50.802Z,83.17
2019-01-14T07:56:19.716Z,82.83
2019-01-14T07:58:48.749Z,82.28
2019-01-14T08:01:17.707Z,81.80
2019-01-14T08:03:48.996Z,81.31
2019-01-14T08:06:18.031Z,80.51
2019-01-14T08:08:47.084Z,80.17
2019-01-14T08:11:16.068Z,79.90
2019-01-14T08:13:45.100Z,79.91
2019-01-14T08:16:13.974Z,79.82
2019-01-14T08:18:42.844Z,79.84
2019-01-14T08:21:11.835Z,79.91
2019-01-14T08:23:40.691Z,80.44
2019-01-14T08:26:09.833Z,80.38
2019-01-14T08:28:39.018Z,80.25
2019-01-14T08:31:08.133Z,80.17
2019-01-14T08:33:37.018Z,77.96
2019-01-14T08:36:05.988Z,78.07
2019-01-14T08:38:34.931Z,77.71
2019-01-14T08:41:03.849Z,77.57
2019-01-14T08:43:35.194Z,77.67
2019-01-14T08:46:04.115Z,77.93
2019-01-14T08:48:33.083Z,75.98
2019-01-14T08:51:02.047Z,77.13
2019-01-14T08:53:31.026Z,77.42
2019-01-14T08:55:59.950Z,77.55
2019-01-14T08:58:31.864Z,76.47
2019-01-14T09:01:00.772Z,76.52
2019-01-14T09:03:29.690Z,76.78
2019-01-14T09:06:00.772Z,76.77
2019-01-14T09:08:28.725Z,76.52
2019-01-14T09:10:56.485Z,77.07
2019-01-14T09:13:25.486Z,76.90
2019-01-14T09:15:54.375Z,76.77
2019-01-14T09:18:23.287Z,75.27
2019-01-14T09:20:52.257Z,74.17
2019-01-14T09:23:21.298Z,74.78
2019-01-14T09:25:53.962Z,74.83
2019-01-14T09:28:22.086Z,75.57
2019-01-14T09:30:51.108Z,76.26
2019-01-14T09:33:19.954Z,76.54
2019-01-14T09:35:48.856Z,76.96
2019-01-14T09:38:17.787Z,76.84
2019-01-14T09:40:50.306Z,77.05
2019-01-14T09:43:25.470Z,76.34
2019-01-14T09:45:54.400Z,74.45
2019-01-14T09:48:23.318Z,69.97
2019-01-14T09:50:52.208Z,60.41
2019-01-14T09:53:21.118Z,58.93
2019-01-14T09:55:50.096Z,57.70
2019-01-14T09:58:19.007Z,58.82
2019-01-14T10:00:48.033Z,59.96
2019-01-14T10:03:16.902Z,61.44
2019-01-14T10:05:45.806Z,62.40
2019-01-14T10:08:16.456Z,62.85
2019-01-14T10:10:45.352Z,63.93
2019-01-14T10:13:14.289Z,64.63
2019-01-14T10:15:43.264Z,67.31
2019-01-14T10:18:12.186Z,66.70
2019-01-14T10:20:41.218Z,67.39
2019-01-14T10:23:10.211Z,66.58
2019-01-14T10:25:39.143Z,61.26
2019-01-14T10:28:08.222Z,57.21
2019-01-14T10:30:37.146Z,55.29
2019-01-14T10:33:06.077Z,49.36
2019-01-14T10:35:34.975Z,48.96
2019-01-14T10:38:03.952Z,47.39
2019-01-14T10:40:32.850Z,46.42
2019-01-14T10:43:01.756Z,48.44
2019-01-14T10:45:33.656Z,50.49
2019-01-14T10:48:02.657Z,50.94
2019-01-14T10:50:31.583Z,53.64
2019-01-14T10:53:00.493Z,55.98
2019-01-14T10:55:29.417Z,57.41
2019-01-14T10:57:58.345Z,60.30
2019-01-14T11:00:28.961Z,61.38
2019-01-14T11:02:57.882Z,61.74
2019-01-14T11:05:29.101Z,62.53
2019-01-14T11:07:57.920Z,62.39
2019-01-14T11:10:26.838Z,61.99
2019-01-14T11:12:55.741Z,62.34
2019-01-14T11:15:24.625Z,63.86
2019-01-14T11:17:53.588Z,65.04
2019-01-14T11:20:27.629Z,65.98
2019-01-14T11:22:56.596Z,67.25
2019-01-14T11:25:25.460Z,64.58
2019-01-14T11:27:54.511Z,60.59
2019-01-14T11:30:28.418Z,57.08
2019-01-14T11:32:57.325Z,54.54
2019-01-14T11:35:26.312Z,52.77
2019-01-14T11:37:55.198Z,50.25
2019-01-14T11:40:30.149Z,49.06
2019-01-14T11:42:59.002Z,49.48
2019-01-14T11:45:27.949Z,47.92
2019-01-14T11:47:56.807Z,50.00
2019-01-14T11:50:25.758Z,49.73
2019-01-14T11:52:54.756Z,51.26
2019-01-14T11:55:23.670Z,54.05
2019-01-14T11:57:52.503Z,54.85
2019-01-14T12:00:23.397Z,55.05
2019-01-14T12:02:52.380Z,58.55
2019-01-14T12:05:21.342Z,59.39
2019-01-14T12:07:50.428Z,59.60
2019-01-14T12:10:19.297Z,60.83
2019-01-14T12:12:48.266Z,61.72
2019-01-14T12:15:19.703Z,62.27
2019-01-14T12:17:48.623Z,62.56
2019-01-14T12:20:17.600Z,60.46
2019-01-14T12:22:46.579Z,60.32
2019-01-14T12:25:15.446Z,60.32
2019-01-14T12:27:48.066Z,61.02
2019-01-14T12:30:23.276Z,61.89
2019-01-14T12:32:53.102Z,63.79
2019-01-14T12:35:22.020Z,63.89
2019-01-14T12:37:53.196Z,64.99
2019-01-14T12:40:24.972Z,66.49
2019-01-14T12:42:52.942Z,65.87
2019-01-14T12:45:21.828Z,67.27
2019-01-14T12:47:50.859Z,67.53
2019-01-14T12:50:22.320Z,67.21
2019-01-14T12:52:51.260Z,66.87
2019-01-14T12:55:20.146Z,66.35
2019-01-14T12:57:49.049Z,68.40
2019-01-14T13:00:23.020Z,67.44
2019-01-14T13:02:52.187Z,66.78
2019-01-14T13:05:23.155Z,66.62
2019-01-14T13:07:52.080Z,66.28
2019-01-14T13:10:21.043Z,65.50
2019-01-14T13:12:49.970Z,64.94
2019-01-14T13:15:20.980Z,64.88
2019-01-14T13:17:49.913Z,65.47
2019-01-14T13:20:18.911Z,65.57
2019-01-14T13:22:47.879Z,64.40
2019-01-14T13:25:16.755Z,64.68
2019-01-14T13:27:45.703Z,65.01
2019-01-14T13:30:19.956Z,63.69
2019-01-14T13:32:49.063Z,63.96
2019-01-14T13:35:17.855Z,64.95
2019-01-14T13:37:46.854Z,67.58
2019-01-14T13:40:17.749Z,70.25
2019-01-14T13:42:44.922Z,70.47
2019-01-14T13:45:16.053Z,70.70
2019-01-14T13:47:44.991Z,70.66
2019-01-14T13:50:15.665Z,72.04
2019-01-14T13:52:44.558Z,71.85
2019-01-14T13:55:13.577Z,72.42
2019-01-14T13:57:42.486Z,72.34
2019-01-14T14:00:17.014Z,72.78
2019-01-14T14:02:45.969Z,72.91
2019-01-14T14:05:14.977Z,72.36
2019-01-14T14:07:43.911Z,73.32
2019-01-14T14:10:16.133Z,72.25
2019-01-14T14:12:48.278Z,72.80
2019-01-14T14:15:17.191Z,72.97
2019-01-14T14:17:46.074Z,73.51
2019-01-14T14:20:15.613Z,73.68
2019-01-14T14:22:44.563Z,73.10
2019-01-14T14:25:16.313Z,73.83
2019-01-14T14:27:45.206Z,74.10
2019-01-14T14:30:18.396Z,74.65
2019-01-14T14:32:47.300Z,73.88
2019-01-14T14:35:16.250Z,73.79
2019-01-14T14:37:45.299Z,73.19
2019-01-14T14:40:14.216Z,73.99
2019-01-14T14:42:43.179Z,73.73
2019-01-14T14:45:12.121Z,73.55
2019-01-14T14:47:41.323Z,72.26
2019-01-14T14:50:12.361Z,70.61
2019-01-14T14:52:41.342Z,70.39
2019-01-14T14:55:13.233Z,70.59
2019-01-14T14:57:42.158Z,71.76
2019-01-14T15:00:15.997Z,71.99
2019-01-14T15:02:44.959Z,71.98
2019-01-14T15:05:13.955Z,71.73
2019-01-14T15:07:42.896Z,72.49
2019-01-14T15:10:13.668Z,73.53
2019-01-14T15:12:42.610Z,72.96
2019-01-14T15:15:14.712Z,72.47
2019-01-14T15:17:43.550Z,72.78
2019-01-14T15:20:14.444Z,73.41
2019-01-14T15:22:43.479Z,74.55
2019-01-14T15:25:15.345Z,74.72
2019-01-14T15:27:41.552Z,74.97
2019-01-14T15:30:21.844Z,74.73
2019-01-14T15:32:50.899Z,75.33
2019-01-14T15:35:19.877Z,75.09
2019-01-14T15:37:48.852Z,74.70
2019-01-14T15:40:17.899Z,75.00
2019-01-14T15:42:46.906Z,74.90
2019-01-14T15:45:19.988Z,74.64
2019-01-14T15:47:46.075Z,74.75
2019-01-14T15:50:14.997Z,74.62
2019-01-14T15:52:43.998Z,74.51
2019-01-14T15:55:18.351Z,74.57
2019-01-14T15:57:47.315Z,74.15
2019-01-14T16:00:16.992Z,73.93
2019-01-14T16:02:45.977Z,74.74
2019-01-14T16:05:15.435Z,74.64
2019-01-14T16:07:49.373Z,74.57
2019-01-14T16:10:16.042Z,74.42
2019-01-14T16:12:45.051Z,75.00
2019-01-14T16:15:14.213Z,74.48
2019-01-14T16:17:43.298Z,73.99
2019-01-14T16:20:14.401Z,74.23
2019-01-14T16:22:43.293Z,73.69
2019-01-14T16:25:12.219Z,73.79
2019-01-14T16:27:41.278Z,74.00
2019-01-14T16:30:13.845Z,73.94
2019-01-14T16:32:42.700Z,73.69
2019-01-14T16:35:11.698Z,73.91
2019-01-14T16:37:40.524Z,74.14
2019-01-14T16:40:09.638Z,74.12
2019-01-14T16:42:38.449Z,73.33
2019-01-14T16:45:12.154Z,73.00
2019-01-14T16:47:41.083Z,73.10
2019-01-14T16:50:10.383Z,71.74
2019-01-14T16:52:39.351Z,72.55
2019-01-14T16:55:08.512Z,72.89
2019-01-14T16:57:38.491Z,73.07
2019-01-14T17:00:10.631Z,72.83
2019-01-14T17:02:39.543Z,73.15
2019-01-14T17:05:13.353Z,73.25
2019-01-14T17:07:37.420Z,72.85
2019-01-14T17:10:07.654Z,72.62
2019-01-14T17:12:36.638Z,72.81
2019-01-14T17:15:05.851Z,73.10
2019-01-14T17:17:34.801Z,73.40
2019-01-14T17:20:03.729Z,74.01
2019-01-14T17:22:32.663Z,74.37
2019-01-14T17:25:01.635Z,75.14
2019-01-14T17:27:30.492Z,75.19
2019-01-14T17:29:59.518Z,74.83
2019-01-14T17:32:28.439Z,75.73
2019-01-14T17:34:57.347Z,75.60
2019-01-14T17:37:26.315Z,76.09
2019-01-14T17:39:55.207Z,75.85
2019-01-14T17:42:24.136Z,76.18
2019-01-14T17:44:53.051Z,75.96
2019-01-14T17:47:22.005Z,75.22
2019-01-14T17:49:50.950Z,76.47
2019-01-14T17:52:19.843Z,76.41
2019-01-14T17:54:48.773Z,75.99
2019-01-14T17:57:17.685Z,75.99
2019-01-14T17:59:46.719Z,76.04
2019-01-14T18:02:15.591Z,75.78
2019-01-14T18:04:44.483Z,76.05
2019-01-14T18:07:13.482Z,75.81
2019-01-14T18:09:42.465Z,75.88
2019-01-14T18:12:11.431Z,75.71
2019-01-14T18:14:40.362Z,75.46
2019-01-14T18:17:09.285Z,74.96
2019-01-14T18:19:38.199Z,75.54
2019-01-14T18:22:07.167Z,75.80
2019-01-14T18:24:36.068Z,75.32
2019-01-14T18:27:05.165Z,75.27
2019-01-14T18:29:34.020Z,75.64
2019-01-14T18:32:03.002Z,73.70
2019-01-14T18:34:31.851Z,74.65
2019-01-14T18:37:00.788Z,74.40
2019-01-14T18:39:29.751Z,74.38
2019-01-14T18:41:58.661Z,74.15
2019-01-14T18:44:27.622Z,74.29
2019-01-14T18:46:56.586Z,74.45
2019-01-14T18:49:25.447Z,74.23
2019-01-14T18:51:54.333Z,74.69
2019-01-14T18:54:23.291Z,74.91
2019-01-14T18:56:52.214Z,74.79
2019-01-14T18:59:21.115Z,74.33
2019-01-14T19:01:50.024Z,74.95
2019-01-14T19:04:18.913Z,75.36
2019-01-14T19:06:47.846Z,75.84
2019-01-14T19:09:16.779Z,75.49
2019-01-14T19:11:45.615Z,75.32
2019-01-14T19:14:16.841Z,75.89
2019-01-14T19:16:43.448Z,76.17
2019-01-14T19:19:12.365Z,76.48
2019-01-14T19:21:41.260Z,76.81
2019-01-14T19:24:10.185Z,76.68
2019-01-14T19:26:39.136Z,76.95
2019-01-14T19:29:08.061Z,77.46
2019-01-14T19:31:36.991Z,77.23
2019-01-14T19:34:05.903Z,77.74
2019-01-14T19:36:34.830Z,77.60
2019-01-14T19:39:03.804Z,78.78
2019-01-14T19:41:35.601Z,77.01
2019-01-14T19:44:04.624Z,78.35
2019-01-14T19:46:33.572Z,78.28
2019-01-14T19:49:02.498Z,78.17
2019-01-14T19:51:31.409Z,76.88
2019-01-14T19:54:00.331Z,76.91
2019-01-14T19:56:29.288Z,78.16
2019-01-14T19:58:58.276Z,78.06
2019-01-14T20:01:27.078Z,77.55
2019-01-14T20:03:56.019Z,77.28
2019-01-14T20:06:24.891Z,77.94
2019-01-14T20:08:53.817Z,78.59
2019-01-14T20:11:22.732Z,78.74
2019-01-14T20:13:53.486Z,79.14
2019-01-14T20:16:20.605Z,79.14
2019-01-14T20:18:49.534Z,79.08
2019-01-14T20:21:18.489Z,77.65
2019-01-14T20:23:52.260Z,78.58
2019-01-14T20:26:16.232Z,79.24
2019-01-14T20:28:45.113Z,79.37
2019-01-14T20:31:13.979Z,79.40
2019-01-14T20:33:42.944Z,78.77
2019-01-14T20:36:11.834Z,79.49
2019-01-14T20:38:40.816Z,79.71
2019-01-14T20:41:17.536Z,79.86
2019-01-14T20:43:44.054Z,79.95
2019-01-14T20:46:13.020Z,80.22
2019-01-14T20:48:41.890Z,80.14
2019-01-14T20:51:10.987Z,80.21
2019-01-14T20:53:39.916Z,79.89
2019-01-14T20:56:08.911Z,80.64
2019-01-14T20:58:37.799Z,80.27
2019-01-14T21:01:06.758Z,80.42
2019-01-14T21:03:35.732Z,80.58
2019-01-14T21:06:04.665Z,80.50
2019-01-14T21:08:33.577Z,80.89
2019-01-14T21:11:02.466Z,80.66
2019-01-14T21:13:31.376Z,80.83
2019-01-14T21:16:02.949Z,81.11
2019-01-14T21:18:29.285Z,81.21
2019-01-14T21:20:58.139Z,80.44
2019-01-14T21:23:27.024Z,80.46
2019-01-14T21:25:55.990Z,80.74
2019-01-14T21:28:24.908Z,81.03
2019-01-14T21:30:53.823Z,80.96
2019-01-14T21:33:22.807Z,81.08
2019-01-14T21:35:51.677Z,80.73
2019-01-14T21:38:20.638Z,80.77
2019-01-14T21:40:49.504Z,80.73
2019-01-14T21:43:18.416Z,81.07
2019-01-14T21:45:47.407Z,81.06
2019-01-14T21:48:17.353Z,81.29
2019-01-14T21:50:45.187Z,81.59
2019-01-14T21:53:14.076Z,81.20
2019-01-14T21:55:43.071Z,81.04
2019-01-14T21:58:12.091Z,81.37
2019-01-14T22:00:40.914Z,81.33
2019-01-14T22:03:09.837Z,81.28
2019-01-14T22:05:38.764Z,81.61
2019-01-14T22:08:07.669Z,81.21
2019-01-14T22:10:36.599Z,81.59
2019-01-14T22:13:05.564Z,81.66
2019-01-14T22:15:34.442Z,81.90
2019-01-14T22:18:03.441Z,81.39
2019-01-14T22:20:32.349Z,80.95
2019-01-14T22:23:01.377Z,81.13
2019-01-14T22:25:30.310Z,81.52
2019-01-14T22:27:59.231Z,81.34
2019-01-14T22:30:30.655Z,81.08
2019-01-14T22:32:59.619Z,81.31
2019-01-14T22:35:28.467Z,81.50
2019-01-14T22:37:57.410Z,81.93
2019-01-14T22:40:26.332Z,81.54
2019-01-14T22:42:55.241Z,81.43
2019-01-14T22:45:24.149Z,81.96
2019-01-14T22:47:53.082Z,81.06
2019-01-14T22:50:21.924Z,81.23
2019-01-14T22:52:50.829Z,81.17
2019-01-14T22:55:19.758Z,81.24
2019-01-14T22:57:48.648Z,81.06
2019-01-14T23:00:50.953Z,80.91
2019-01-14T23:03:19.891Z,81.30
2019-01-14T23:05:48.804Z,81.42
2019-01-14T23:08:17.703Z,80.88
2019-01-14T23:10:46.661Z,80.88
2019-01-14T23:13:15.612Z,80.56
2019-01-14T23:15:44.457Z,79.92
2019-01-14T23:18:13.385Z,80.11
2019-01-14T23:20:42.356Z,80.13
2019-01-14T23:23:11.174Z,80.76
2019-01-14T23:25:40.067Z,80.49
2019-01-14T23:28:09.001Z,80.79
2019-01-14T23:30:37.873Z,80.79
2019-01-14T23:33:06.825Z,80.68
2019-01-14T23:35:35.745Z,80.49
2019-01-14T23:38:04.685Z,80.55
2019-01-14T23:40:33.577Z,80.50
2019-01-14T23:43:03.958Z,80.51
2019-01-14T23:45:31.385Z,80.75
2019-01-14T23:48:00.377Z,80.61
2019-01-14T23:50:29.241Z,81.13
2019-01-14T23:52:59.433Z,81.91
2019-01-14T23:55:28.286Z,81.62
2019-01-14T23:57:57.331Z,82.83
